createdAt,value
2022-12-23T00:00:07.151Z,104.30
2022-12-23T00:03:14.627Z,112.30
2022-12-23T00:06:20.425Z,104.93
2022-12-23T00:09:23.100Z,108.38
2022-12-23T00:12:44.093Z,106.93
2022-12-23T00:15:46.707Z,98.70
2022-12-23T00:18:50.819Z,110.05
2022-12-23T00:21:53.450Z,111.90
2022-12-23T00:24:56.080Z,104.00
2022-12-23T00:28:01.548Z,98.45
2022-12-23T00:31:06.950Z,107.20
2022-12-23T00:34:11.972Z,107.35
2022-12-23T00:37:14.642Z,109.13
2022-12-23T00:40:35.832Z,103.30
2022-12-23T00:43:38.507Z,111.28
2022-12-23T00:46:41.490Z,101.40
2022-12-23T00:49:45.665Z,106.90
2022-12-23T00:52:48.352Z,100.93
2022-12-23T00:55:51.360Z,101.82
2022-12-23T00:58:53.992Z,105.15
2022-12-23T01:02:15.782Z,109.80
2022-12-23T01:05:38.399Z,101.32
2022-12-23T01:08:41.537Z,101.85
2022-12-23T01:11:44.150Z,102.63
2022-12-23T01:14:46.853Z,97.20
2022-12-23T01:17:49.499Z,110.20
2022-12-23T01:20:53.754Z,101.57
2022-12-23T01:23:56.363Z,98.22
2022-12-23T01:26:59.167Z,99.10
2022-12-23T01:30:01.962Z,101.53
2022-12-23T01:33:06.023Z,103.87
2022-12-23T01:36:10.951Z,96.97
2022-12-23T01:39:13.673Z,103.72
2022-12-23T01:42:37.306Z,101.40
2022-12-23T01:45:39.964Z,103.95
2022-12-23T01:48:45.506Z,98.80
2022-12-23T01:51:49.693Z,98.40
2022-12-23T01:54:53.013Z,96.60
2022-12-23T01:58:00.682Z,102.03
2022-12-23T02:01:22.956Z,102.78
2022-12-23T02:04:26.172Z,102.10
2022-12-23T02:07:50.265Z,100.80
2022-12-23T02:11:15.860Z,106.05
2022-12-23T02:14:49.331Z,105.72
2022-12-23T02:18:06.304Z,98.50
2022-12-23T02:21:27.289Z,99.40
2022-12-23T02:25:05.793Z,102.68
2022-12-23T02:28:40.880Z,101.15
2022-12-23T02:31:55.244Z,99.28
2022-12-23T02:35:04.942Z,102.95
2022-12-23T02:38:12.576Z,100.30
2022-12-23T02:41:23.382Z,105.10
2022-12-23T02:44:33.209Z,91.47
2022-12-23T02:47:42.238Z,97.15
2022-12-23T02:50:48.172Z,97.68
2022-12-23T02:53:54.428Z,90.87
2022-12-23T02:57:00.725Z,93.88
2022-12-23T03:00:05.525Z,96.65
2022-12-23T03:03:12.101Z,93.30
2022-12-23T03:06:21.737Z,91.55
2022-12-23T03:09:31.283Z,93.50
2022-12-23T03:12:47.220Z,94.85
2022-12-23T03:15:59.421Z,88.05
2022-12-23T03:19:14.345Z,88.93
2022-12-23T03:22:25.838Z,90.30
2022-12-23T03:25:33.931Z,86.50
2022-12-23T03:28:44.152Z,93.93
2022-12-23T03:31:48.772Z,87.65
2022-12-23T03:34:56.925Z,92.32
2022-12-23T03:38:02.351Z,90.32
2022-12-23T03:41:09.929Z,97.23
2022-12-23T03:44:19.566Z,86.60
2022-12-23T03:47:28.042Z,90.90
2022-12-23T03:50:36.454Z,91.95
2022-12-23T03:53:44.830Z,95.97
2022-12-23T03:56:53.158Z,87.23
2022-12-23T03:59:56.337Z,100.13
2022-12-23T04:03:10.285Z,88.47
2022-12-23T04:06:17.593Z,92.30
2022-12-23T04:09:22.563Z,88.40
2022-12-23T04:12:31.106Z,85.53
2022-12-23T04:15:38.706Z,90.43
2022-12-23T04:18:41.434Z,91.28
2022-12-23T04:21:45.528Z,90.88
2022-12-23T04:24:48.141Z,91.38
2022-12-23T04:27:50.748Z,91.07
2022-12-23T04:30:53.557Z,88.57
2022-12-23T04:33:56.696Z,93.93
2022-12-23T04:37:00.858Z,90.95
2022-12-23T04:40:04.213Z,97.00
2022-12-23T04:43:06.938Z,112.90
2022-12-23T04:46:09.515Z,146.27
2022-12-23T04:49:12.150Z,114.97
2022-12-23T04:52:16.436Z,117.00
2022-12-23T04:55:19.084Z,144.18
2022-12-23T04:58:22.338Z,113.63
2022-12-23T05:01:24.967Z,134.90
2022-12-23T05:04:28.995Z,149.95
2022-12-23T05:07:33.044Z,138.25
2022-12-23T05:10:37.546Z,124.25
2022-12-23T05:13:40.242Z,140.27
2022-12-23T05:16:42.831Z,112.85
2022-12-23T05:19:45.750Z,127.90
2022-12-23T05:22:50.328Z,155.30
2022-12-23T05:25:54.216Z,165.13
2022-12-23T05:28:56.878Z,138.97
2022-12-23T05:31:59.605Z,131.60
2022-12-23T05:35:02.431Z,187.52
2022-12-23T05:38:06.639Z,159.68
2022-12-23T05:41:09.316Z,121.80
2022-12-23T05:44:12.007Z,126.03
2022-12-23T05:47:14.731Z,160.70
2022-12-23T05:50:17.721Z,107.60
2022-12-23T05:53:21.994Z,110.97
2022-12-23T05:56:24.689Z,105.40
2022-12-23T05:59:30.969Z,110.37
2022-12-23T06:02:34.516Z,111.03
2022-12-23T06:05:38.999Z,135.45
2022-12-23T06:08:43.140Z,123.00
2022-12-23T06:11:46.074Z,115.97
2022-12-23T06:14:48.801Z,125.23
2022-12-23T06:17:51.681Z,117.38
2022-12-23T06:20:54.568Z,125.18
2022-12-23T06:23:58.906Z,134.23
2022-12-23T06:27:01.682Z,120.95
2022-12-23T06:30:05.165Z,143.13
2022-12-23T06:33:08.120Z,138.65
2022-12-23T06:36:10.915Z,159.18
2022-12-23T06:39:15.040Z,134.52
2022-12-23T06:42:17.745Z,127.43
2022-12-23T06:45:20.452Z,147.10
2022-12-23T06:48:23.066Z,130.95
2022-12-23T06:51:25.758Z,165.07
2022-12-23T06:54:29.844Z,160.38
2022-12-23T06:57:32.613Z,150.02
2022-12-23T07:00:39.749Z,170.23
2022-12-23T07:03:42.523Z,175.40
2022-12-23T07:06:45.322Z,145.45
2022-12-23T07:09:49.458Z,156.25
2022-12-23T07:12:52.118Z,188.90
2022-12-23T07:15:55.142Z,174.97
2022-12-23T07:18:57.930Z,170.63
2022-12-23T07:22:03.942Z,170.43
2022-12-23T07:25:09.200Z,136.88
2022-12-23T07:28:11.949Z,184.55
2022-12-23T07:31:15.023Z,153.90
2022-12-23T07:34:18.875Z,181.85
2022-12-23T07:37:21.482Z,256.27
2022-12-23T07:40:27.330Z,173.20
2022-12-23T07:43:30.041Z,267.17
2022-12-23T07:46:32.964Z,168.27
2022-12-23T07:49:35.800Z,135.27
2022-12-23T07:52:38.953Z,134.90
2022-12-23T07:55:42.923Z,118.65
2022-12-23T07:58:48.508Z,160.88
2022-12-23T08:01:51.169Z,159.50
2022-12-23T08:04:53.936Z,159.70
2022-12-23T08:07:56.565Z,139.35
2022-12-23T08:11:03.823Z,136.98
2022-12-23T08:14:07.071Z,137.18
2022-12-23T08:17:09.922Z,135.23
2022-12-23T08:20:13.062Z,143.70
2022-12-23T08:23:21.382Z,133.75
2022-12-23T08:26:28.433Z,132.43
2022-12-23T08:29:36.020Z,157.43
2022-12-23T08:32:39.342Z,135.43
2022-12-23T08:35:42.076Z,159.95
2022-12-23T08:38:45.626Z,122.13
2022-12-23T08:41:49.727Z,143.60
2022-12-23T08:44:56.719Z,111.30
2022-12-23T08:47:59.426Z,143.77
2022-12-23T08:51:05.687Z,141.70
2022-12-23T08:54:08.478Z,155.15
2022-12-23T08:57:12.617Z,127.85
2022-12-23T09:00:17.299Z,111.63
2022-12-23T09:03:20.221Z,166.53
2022-12-23T09:06:29.697Z,158.57
2022-12-23T09:09:33.523Z,137.73
2022-12-23T09:12:37.639Z,142.70
2022-12-23T09:15:42.305Z,147.30
2022-12-23T09:18:45.177Z,188.37
2022-12-23T09:21:48.112Z,138.23
2022-12-23T09:24:51.199Z,136.52
2022-12-23T09:27:55.469Z,123.47
2022-12-23T09:30:58.311Z,135.48
2022-12-23T09:34:01.371Z,92.07
2022-12-23T09:37:04.602Z,113.15
2022-12-23T09:40:11.048Z,107.90
2022-12-23T09:43:25.063Z,165.60
2022-12-23T09:46:32.849Z,120.22
2022-12-23T09:49:44.947Z,138.10
2022-12-23T09:52:57.851Z,102.68
2022-12-23T09:56:06.637Z,100.15
2022-12-23T09:59:22.429Z,121.55
2022-12-23T10:02:37.584Z,122.57
2022-12-23T10:05:56.292Z,119.60
2022-12-23T10:09:01.565Z,103.40
2022-12-23T10:12:14.342Z,111.53
2022-12-23T10:15:26.093Z,99.38
2022-12-23T10:18:44.741Z,81.05
2022-12-23T10:21:50.650Z,97.17
2022-12-23T10:24:55.569Z,95.53
2022-12-23T10:27:58.393Z,110.75
2022-12-23T10:31:30.904Z,88.63
2022-12-23T10:34:40.563Z,118.47
2022-12-23T10:37:55.348Z,108.83
2022-12-23T10:41:09.469Z,95.28
2022-12-23T10:44:33.422Z,117.13
2022-12-23T10:47:48.304Z,94.72
2022-12-23T10:50:59.545Z,88.63
2022-12-23T10:54:06.825Z,92.07
2022-12-23T10:57:10.462Z,89.60
2022-12-23T11:00:21.817Z,84.03
2022-12-23T11:03:28.885Z,79.25
2022-12-23T11:06:37.479Z,80.45
2022-12-23T11:09:44.156Z,84.97
2022-12-23T11:12:49.999Z,80.72
2022-12-23T11:15:53.061Z,79.55
2022-12-23T11:19:00.736Z,82.88
2022-12-23T11:22:04.146Z,81.47
2022-12-23T11:25:27.145Z,80.87
2022-12-23T11:28:31.514Z,80.22
2022-12-23T11:31:36.523Z,79.13
2022-12-23T11:34:45.846Z,102.30
2022-12-23T11:37:48.585Z,81.18
2022-12-23T11:40:51.469Z,84.47
2022-12-23T11:44:00.100Z,79.80
2022-12-23T11:47:23.120Z,78.53
2022-12-23T11:50:31.624Z,79.80
2022-12-23T11:53:36.715Z,81.25
2022-12-23T11:56:41.024Z,85.83
2022-12-23T11:59:51.273Z,83.70
2022-12-23T12:02:57.112Z,86.93
2022-12-23T12:06:03.706Z,86.70
2022-12-23T12:09:06.928Z,82.63
2022-12-23T12:12:17.511Z,81.00
2022-12-23T12:15:29.189Z,90.38
2022-12-23T12:18:34.038Z,85.60
2022-12-23T12:21:39.166Z,87.50
2022-12-23T12:24:51.008Z,90.85
2022-12-23T12:27:58.103Z,90.63
2022-12-23T12:31:11.719Z,83.72
2022-12-23T12:34:25.642Z,87.65
2022-12-23T12:37:39.716Z,81.13
2022-12-23T12:40:51.091Z,85.80
2022-12-23T12:44:17.568Z,89.00
2022-12-23T12:47:52.686Z,80.20
2022-12-23T12:51:01.259Z,87.20
2022-12-23T12:54:15.911Z,87.55
2022-12-23T12:57:21.354Z,83.65
2022-12-23T13:00:25.148Z,90.83
2022-12-23T13:03:51.591Z,107.25
2022-12-23T13:07:04.903Z,108.93
2022-12-23T13:10:14.819Z,89.10
2022-12-23T13:13:32.403Z,81.75
2022-12-23T13:16:45.551Z,81.70
2022-12-23T13:19:56.887Z,91.60
2022-12-23T13:23:41.117Z,91.35
2022-12-23T13:26:37.802Z,85.75
2022-12-23T13:29:57.548Z,77.72
2022-12-23T13:33:14.958Z,86.27
2022-12-23T13:36:32.708Z,88.68
2022-12-23T13:39:49.400Z,84.15
2022-12-23T13:42:59.749Z,90.00
2022-12-23T13:46:08.352Z,88.60
2022-12-23T13:49:19.987Z,91.83
2022-12-23T13:52:47.621Z,94.53
2022-12-23T13:56:06.046Z,104.93
2022-12-23T13:59:11.941Z,99.03
2022-12-23T14:02:40.872Z,108.25
2022-12-23T14:05:45.536Z,103.43
2022-12-23T14:08:48.777Z,95.25
2022-12-23T14:11:52.856Z,98.30
2022-12-23T14:15:28.090Z,98.35
2022-12-23T14:18:45.111Z,88.85
2022-12-23T14:21:57.933Z,91.77
2022-12-23T14:25:40.776Z,89.10
2022-12-23T14:28:56.473Z,86.85
2022-12-23T14:32:01.092Z,97.15
2022-12-23T14:35:17.320Z,96.18
2022-12-23T14:38:31.177Z,100.40
2022-12-23T14:41:38.924Z,113.88
2022-12-23T14:44:50.259Z,108.55
2022-12-23T14:47:54.384Z,113.15
2022-12-23T14:51:02.731Z,116.25
2022-12-23T14:54:15.958Z,108.57
2022-12-23T14:57:25.271Z,114.65
2022-12-23T15:00:32.199Z,122.15
2022-12-23T15:03:43.629Z,119.30
2022-12-23T15:06:48.484Z,129.50
2022-12-23T15:10:00.275Z,121.67
2022-12-23T15:13:06.037Z,119.20
2022-12-23T15:16:16.879Z,128.18
2022-12-23T15:19:24.351Z,127.60
2022-12-23T15:22:32.628Z,131.82
2022-12-23T15:25:39.996Z,131.67
2022-12-23T15:28:42.913Z,135.02
2022-12-23T15:31:48.682Z,138.73
2022-12-23T15:34:58.914Z,146.38
2022-12-23T15:38:02.891Z,185.43
2022-12-23T15:41:15.119Z,159.87
2022-12-23T15:44:20.838Z,144.65
2022-12-23T15:47:25.795Z,153.55
2022-12-23T15:50:40.289Z,141.63
2022-12-23T15:53:46.832Z,155.60
2022-12-23T15:56:52.319Z,148.87
2022-12-23T15:59:56.109Z,178.15
2022-12-23T16:03:01.226Z,160.43
2022-12-23T16:06:17.810Z,198.88
2022-12-23T16:09:31.787Z,183.85
2022-12-23T16:12:34.939Z,160.43
2022-12-23T16:15:37.647Z,169.68
2022-12-23T16:18:47.165Z,166.77
2022-12-23T16:21:51.588Z,185.25
2022-12-23T16:25:01.590Z,169.88
2022-12-23T16:28:07.661Z,143.50
2022-12-23T16:31:11.346Z,153.70
2022-12-23T16:34:14.091Z,146.40
2022-12-23T16:37:18.254Z,146.88
2022-12-23T16:40:24.596Z,138.38
2022-12-23T16:43:27.634Z,137.60
2022-12-23T16:46:36.365Z,154.30
2022-12-23T16:49:39.141Z,138.73
2022-12-23T16:52:43.349Z,147.73
2022-12-23T16:55:53.879Z,147.45
2022-12-23T16:58:57.911Z,151.60
2022-12-23T17:02:03.742Z,146.68
2022-12-23T17:05:07.855Z,147.85
2022-12-23T17:08:12.084Z,170.50
2022-12-23T17:11:17.467Z,171.18
2022-12-23T17:14:22.350Z,156.00
2022-12-23T17:17:26.047Z,159.30
2022-12-23T17:20:28.969Z,164.00
2022-12-23T17:23:33.089Z,280.52
2022-12-23T17:26:35.832Z,837.42
2022-12-23T17:29:38.472Z,793.40
2022-12-23T17:32:41.586Z,274.27
2022-12-23T17:35:44.365Z,195.10
2022-12-23T17:38:48.457Z,234.13
2022-12-23T17:41:51.385Z,259.73
2022-12-23T17:44:54.085Z,340.17
2022-12-23T17:47:57.190Z,506.77
2022-12-23T17:51:00.096Z,524.42
2022-12-23T17:54:06.452Z,586.72
2022-12-23T17:57:17.799Z,530.40
2022-12-23T18:00:29.864Z,456.30
2022-12-23T18:03:36.957Z,470.67
2022-12-23T18:06:39.563Z,298.02
2022-12-23T18:09:44.014Z,303.90
2022-12-23T18:12:49.989Z,300.92
2022-12-23T18:15:52.678Z,335.00
2022-12-23T18:18:55.620Z,374.60
2022-12-23T18:21:58.820Z,257.48
2022-12-23T18:25:03.378Z,269.50
2022-12-23T18:28:06.324Z,297.00
2022-12-23T18:31:15.206Z,341.93
2022-12-23T18:34:22.279Z,289.90
2022-12-23T18:37:25.022Z,299.30
2022-12-23T18:40:33.158Z,356.20
2022-12-23T18:43:37.183Z,304.58
2022-12-23T18:46:39.808Z,280.73
2022-12-23T18:49:43.197Z,311.20
2022-12-23T18:52:46.675Z,247.48
2022-12-23T18:55:51.174Z,228.55
2022-12-23T18:58:53.821Z,316.17
2022-12-23T19:01:56.968Z,231.30
2022-12-23T19:04:59.881Z,184.90
2022-12-23T19:08:02.699Z,158.57
2022-12-23T19:11:11.463Z,165.50
2022-12-23T19:14:14.755Z,153.55
2022-12-23T19:17:17.568Z,170.00
2022-12-23T19:20:25.504Z,193.20
2022-12-23T19:23:28.787Z,193.93
2022-12-23T19:26:32.777Z,200.88
2022-12-23T19:29:35.567Z,178.32
2022-12-23T19:32:38.159Z,193.57
2022-12-23T19:35:42.048Z,185.93
2022-12-23T19:38:45.061Z,169.93
2022-12-23T19:41:49.264Z,182.48
2022-12-23T19:44:52.023Z,156.32
2022-12-23T19:47:54.690Z,162.90
2022-12-23T19:50:59.029Z,168.82
2022-12-23T19:54:01.797Z,189.57
2022-12-23T19:57:05.783Z,168.38
2022-12-23T20:00:09.991Z,170.98
2022-12-23T20:03:15.988Z,171.33
2022-12-23T20:06:20.946Z,169.55
2022-12-23T20:09:23.835Z,167.48
2022-12-23T20:12:28.062Z,168.52
2022-12-23T20:15:30.728Z,175.98
2022-12-23T20:18:34.209Z,173.87
2022-12-23T20:21:40.142Z,178.18
2022-12-23T20:24:44.216Z,167.32
2022-12-23T20:27:48.241Z,179.45
2022-12-23T20:30:58.933Z,177.13
2022-12-23T20:34:02.457Z,199.17
2022-12-23T20:37:05.152Z,167.75
2022-12-23T20:40:10.401Z,169.30
2022-12-23T20:43:15.461Z,163.07
2022-12-23T20:46:19.125Z,162.68
2022-12-23T20:49:21.858Z,167.50
2022-12-23T20:52:25.589Z,173.57
2022-12-23T20:55:28.202Z,199.20
2022-12-23T20:58:50.517Z,221.23
2022-12-23T21:01:53.324Z,192.52
2022-12-23T21:04:56.022Z,172.97
2022-12-23T21:07:58.704Z,176.25
2022-12-23T21:11:03.459Z,160.70
2022-12-23T21:14:08.072Z,177.65
2022-12-23T21:17:10.811Z,154.63
2022-12-23T21:20:13.552Z,122.73
2022-12-23T21:23:16.560Z,133.90
2022-12-23T21:26:21.639Z,143.38
2022-12-23T21:29:26.210Z,133.25
2022-12-23T21:32:28.894Z,139.63
2022-12-23T21:35:31.559Z,181.57
2022-12-23T21:38:36.038Z,183.45
2022-12-23T21:41:41.239Z,167.77
2022-12-23T21:44:45.295Z,217.35
2022-12-23T21:47:47.976Z,209.65
2022-12-23T21:50:54.967Z,190.23
2022-12-23T21:53:59.077Z,125.65
2022-12-23T21:57:01.747Z,114.38
2022-12-23T22:00:07.180Z,125.50
2022-12-23T22:03:09.828Z,120.30
2022-12-23T22:06:15.249Z,118.97
2022-12-23T22:09:19.686Z,115.28
2022-12-23T22:12:22.393Z,108.47
2022-12-23T22:15:26.351Z,94.03
2022-12-23T22:18:29.010Z,102.72
2022-12-23T22:21:33.963Z,100.03
2022-12-23T22:24:36.812Z,104.70
2022-12-23T22:27:39.519Z,96.65
2022-12-23T22:30:43.602Z,105.68
2022-12-23T22:33:46.976Z,132.85
2022-12-23T22:36:50.245Z,112.37
2022-12-23T22:39:53.104Z,112.03
2022-12-23T22:42:57.331Z,134.07
2022-12-23T22:46:02.452Z,106.93
2022-12-23T22:49:05.739Z,103.13
2022-12-23T22:52:08.461Z,94.93
2022-12-23T22:55:11.168Z,92.18
2022-12-23T22:58:13.876Z,96.47
2022-12-23T23:01:22.467Z,94.25
2022-12-23T23:04:25.388Z,98.65
2022-12-23T23:07:27.978Z,89.47
2022-12-23T23:10:33.435Z,92.80
2022-12-23T23:13:36.338Z,95.28
2022-12-23T23:16:40.731Z,95.30
2022-12-23T23:19:43.450Z,95.47
2022-12-23T23:22:46.110Z,90.83
2022-12-23T23:25:49.767Z,93.97
2022-12-23T23:28:52.492Z,91.10
2022-12-23T23:31:58.700Z,91.65
2022-12-23T23:35:08.581Z,96.03
2022-12-23T23:38:13.100Z,88.43
2022-12-23T23:41:20.651Z,88.80
2022-12-23T23:44:25.784Z,85.40
2022-12-23T23:47:34.444Z,86.78
2022-12-23T23:50:37.151Z,79.70
2022-12-23T23:53:40.468Z,88.20
2022-12-23T23:56:43.234Z,86.03
2022-12-23T23:59:45.880Z,88.57
